sensor_id;sensor_type;location;lat;lon;timestamp;temperature;humidity
728;DHT22;347;48.780;9.158;2022-08-19T00:01:53;22.90;30.10
728;DHT22;347;48.780;9.158;2022-08-19T00:04:23;23.00;30.00
728;DHT22;347;48.780;9.158;2022-08-19T00:06:50;22.90;30.20
728;DHT22;347;48.780;9.158;2022-08-19T00:09:18;22.90;30.00
728;DHT22;347;48.780;9.158;2022-08-19T00:11:44;22.90;29.90
728;DHT22;347;48.780;9.158;2022-08-19T00:14:13;22.90;30.10
728;DHT22;347;48.780;9.158;2022-08-19T00:16:42;22.90;30.30
728;DHT22;347;48.780;9.158;2022-08-19T00:19:09;22.90;30.10
728;DHT22;347;48.780;9.158;2022-08-19T00:21:34;22.90;30.00
728;DHT22;347;48.780;9.158;2022-08-19T00:24:05;22.90;30.00
728;DHT22;347;48.780;9.158;2022-08-19T00:26:31;22.80;30.30
728;DHT22;347;48.780;9.158;2022-08-19T00:28:57;22.90;30.20
728;DHT22;347;48.780;9.158;2022-08-19T00:31:22;22.90;30.00
728;DHT22;347;48.780;9.158;2022-08-19T00:33:48;22.90;30.00
728;DHT22;347;48.780;9.158;2022-08-19T00:36:15;22.90;30.00
728;DHT22;347;48.780;9.158;2022-08-19T00:38:41;22.90;30.20
728;DHT22;347;48.780;9.158;2022-08-19T00:41:15;22.70;30.70
728;DHT22;347;48.780;9.158;2022-08-19T00:43:42;22.70;31.40
728;DHT22;347;48.780;9.158;2022-08-19T00:46:08;22.60;30.60
728;DHT22;347;48.780;9.158;2022-08-19T00:48:34;22.60;30.70
728;DHT22;347;48.780;9.158;2022-08-19T00:51:00;22.60;30.80
728;DHT22;347;48.780;9.158;2022-08-19T00:53:28;22.70;30.60
728;DHT22;347;48.780;9.158;2022-08-19T00:55:56;22.60;31.10
728;DHT22;347;48.780;9.158;2022-08-19T00:58:27;22.70;30.90
728;DHT22;347;48.780;9.158;2022-08-19T01:00:54;22.70;30.50
728;DHT22;347;48.780;9.158;2022-08-19T01:03:21;22.70;30.80
728;DHT22;347;48.780;9.158;2022-08-19T01:05:48;22.80;30.70
728;DHT22;347;48.780;9.158;2022-08-19T01:08:16;22.80;30.50
728;DHT22;347;48.780;9.158;2022-08-19T01:10:49;22.80;30.50
728;DHT22;347;48.780;9.158;2022-08-19T01:13:19;22.80;30.50
728;DHT22;347;48.780;9.158;2022-08-19T01:15:50;22.80;30.50
728;DHT22;347;48.780;9.158;2022-08-19T01:18:18;22.80;30.50
728;DHT22;347;48.780;9.158;2022-08-19T01:20:44;22.80;30.50
728;DHT22;347;48.780;9.158;2022-08-19T01:23:10;22.80;30.50
728;DHT22;347;48.780;9.158;2022-08-19T01:28:15;22.70;30.60
728;DHT22;347;48.780;9.158;2022-08-19T01:30:41;22.80;30.60
728;DHT22;347;48.780;9.158;2022-08-19T01:33:09;22.80;30.50
728;DHT22;347;48.780;9.158;2022-08-19T01:35:35;22.80;30.70
728;DHT22;347;48.780;9.158;2022-08-19T01:38:04;22.70;30.80
728;DHT22;347;48.780;9.158;2022-08-19T01:40:38;22.70;30.80
728;DHT22;347;48.780;9.158;2022-08-19T01:43:05;22.70;30.80
728;DHT22;347;48.780;9.158;2022-08-19T01:45:33;22.70;31.30
728;DHT22;347;48.780;9.158;2022-08-19T01:48:00;22.70;31.20
728;DHT22;347;48.780;9.158;2022-08-19T01:50:26;22.70;31.10
728;DHT22;347;48.780;9.158;2022-08-19T01:52:52;22.70;31.20
728;DHT22;347;48.780;9.158;2022-08-19T01:55:20;22.70;31.20
728;DHT22;347;48.780;9.158;2022-08-19T01:57:55;22.70;31.30
728;DHT22;347;48.780;9.158;2022-08-19T02:00:25;22.70;31.30
728;DHT22;347;48.780;9.158;2022-08-19T02:02:51;22.70;31.30
728;DHT22;347;48.780;9.158;2022-08-19T02:05:16;22.70;31.40
728;DHT22;347;48.780;9.158;2022-08-19T02:07:44;22.70;31.60
728;DHT22;347;48.780;9.158;2022-08-19T02:10:14;22.60;32.20
728;DHT22;347;48.780;9.158;2022-08-19T02:12:40;22.60;32.10
728;DHT22;347;48.780;9.158;2022-08-19T02:15:06;22.50;32.00
728;DHT22;347;48.780;9.158;2022-08-19T02:17:32;22.50;32.80
728;DHT22;347;48.780;9.158;2022-08-19T02:19:58;22.60;32.20
728;DHT22;347;48.780;9.158;2022-08-19T02:22:24;22.60;32.20
728;DHT22;347;48.780;9.158;2022-08-19T02:24:54;22.50;32.00
728;DHT22;347;48.780;9.158;2022-08-19T02:27:21;22.50;32.00
728;DHT22;347;48.780;9.158;2022-08-19T02:29:48;22.40;32.00
728;DHT22;347;48.780;9.158;2022-08-19T02:32:14;22.50;32.00
728;DHT22;347;48.780;9.158;2022-08-19T02:34:40;22.40;32.50
728;DHT22;347;48.780;9.158;2022-08-19T02:37:06;22.40;32.00
728;DHT22;347;48.780;9.158;2022-08-19T02:39:52;22.50;32.10
728;DHT22;347;48.780;9.158;2022-08-19T02:42:17;22.50;32.20
728;DHT22;347;48.780;9.158;2022-08-19T02:44:43;22.50;32.10
728;DHT22;347;48.780;9.158;2022-08-19T02:47:09;22.50;32.30
728;DHT22;347;48.780;9.158;2022-08-19T02:49:35;22.50;32.40
728;DHT22;347;48.780;9.158;2022-08-19T02:52:01;22.40;32.60
728;DHT22;347;48.780;9.158;2022-08-19T02:54:27;22.50;32.50
728;DHT22;347;48.780;9.158;2022-08-19T02:56:53;22.40;32.70
728;DHT22;347;48.780;9.158;2022-08-19T02:59:18;22.30;33.00
728;DHT22;347;48.780;9.158;2022-08-19T03:01:45;22.30;33.10
728;DHT22;347;48.780;9.158;2022-08-19T03:04:14;22.30;33.20
728;DHT22;347;48.780;9.158;2022-08-19T03:06:42;22.30;33.10
728;DHT22;347;48.780;9.158;2022-08-19T03:09:09;22.30;33.40
728;DHT22;347;48.780;9.158;2022-08-19T03:11:34;22.30;33.60
728;DHT22;347;48.780;9.158;2022-08-19T03:14:01;22.20;33.80
728;DHT22;347;48.780;9.158;2022-08-19T03:16:28;22.10;34.70
728;DHT22;347;48.780;9.158;2022-08-19T03:18:56;22.10;34.90
728;DHT22;347;48.780;9.158;2022-08-19T03:21:26;22.00;35.50
728;DHT22;347;48.780;9.158;2022-08-19T03:23:57;22.00;35.20
728;DHT22;347;48.780;9.158;2022-08-19T03:26:23;22.00;35.60
728;DHT22;347;48.780;9.158;2022-08-19T03:28:49;22.10;35.70
728;DHT22;347;48.780;9.158;2022-08-19T03:31:18;22.10;35.50
728;DHT22;347;48.780;9.158;2022-08-19T03:33:45;22.10;35.30
728;DHT22;347;48.780;9.158;2022-08-19T03:36:17;22.10;36.50
728;DHT22;347;48.780;9.158;2022-08-19T03:38:46;22.10;35.70
728;DHT22;347;48.780;9.158;2022-08-19T03:41:15;22.10;36.00
728;DHT22;347;48.780;9.158;2022-08-19T03:43:41;22.10;35.80
728;DHT22;347;48.780;9.158;2022-08-19T03:46:10;22.10;35.80
728;DHT22;347;48.780;9.158;2022-08-19T03:48:37;22.10;35.70
728;DHT22;347;48.780;9.158;2022-08-19T03:51:03;22.10;35.60
728;DHT22;347;48.780;9.158;2022-08-19T03:53:30;22.10;35.20
728;DHT22;347;48.780;9.158;2022-08-19T03:55:57;22.10;35.50
728;DHT22;347;48.780;9.158;2022-08-19T03:58:25;22.00;35.70
728;DHT22;347;48.780;9.158;2022-08-19T04:00:51;22.10;35.70
728;DHT22;347;48.780;9.158;2022-08-19T04:03:17;22.10;35.30
728;DHT22;347;48.780;9.158;2022-08-19T04:05:44;22.10;34.90
728;DHT22;347;48.780;9.158;2022-08-19T04:08:10;22.10;35.00
728;DHT22;347;48.780;9.158;2022-08-19T04:10:36;22.00;35.00
728;DHT22;347;48.780;9.158;2022-08-19T04:13:04;22.10;35.00
728;DHT22;347;48.780;9.158;2022-08-19T04:15:31;22.10;34.90
728;DHT22;347;48.780;9.158;2022-08-19T04:18:01;22.10;35.00
728;DHT22;347;48.780;9.158;2022-08-19T04:20:26;22.00;34.80
728;DHT22;347;48.780;9.158;2022-08-19T04:22:52;21.80;35.40
728;DHT22;347;48.780;9.158;2022-08-19T04:25:17;21.90;35.40
728;DHT22;347;48.780;9.158;2022-08-19T04:27:43;21.90;35.20
728;DHT22;347;48.780;9.158;2022-08-19T04:30:12;21.90;35.00
728;DHT22;347;48.780;9.158;2022-08-19T04:32:38;21.90;34.90
728;DHT22;347;48.780;9.158;2022-08-19T04:35:04;21.90;35.00
728;DHT22;347;48.780;9.158;2022-08-19T04:37:30;21.80;35.10
728;DHT22;347;48.780;9.158;2022-08-19T04:39:57;21.90;35.20
728;DHT22;347;48.780;9.158;2022-08-19T04:42:42;21.90;35.20
728;DHT22;347;48.780;9.158;2022-08-19T04:45:11;21.90;35.40
728;DHT22;347;48.780;9.158;2022-08-19T04:47:37;21.80;35.40
728;DHT22;347;48.780;9.158;2022-08-19T04:50:04;21.90;36.10
728;DHT22;347;48.780;9.158;2022-08-19T04:52:30;21.70;36.70
728;DHT22;347;48.780;9.158;2022-08-19T04:54:56;21.70;36.10
728;DHT22;347;48.780;9.158;2022-08-19T04:57:22;21.70;36.20
728;DHT22;347;48.780;9.158;2022-08-19T06:09:04;21.80;36.40
728;DHT22;347;48.780;9.158;2022-08-19T06:28:27;21.70;36.60
728;DHT22;347;48.780;9.158;2022-08-19T09:29:39;21.80;40.10
728;DHT22;347;48.780;9.158;2022-08-19T09:32:05;21.90;40.00
728;DHT22;347;48.780;9.158;2022-08-19T09:34:32;21.90;39.20
728;DHT22;347;48.780;9.158;2022-08-19T09:36:58;21.90;39.20
728;DHT22;347;48.780;9.158;2022-08-19T09:39:25;22.00;39.10
728;DHT22;347;48.780;9.158;2022-08-19T09:41:51;22.00;38.90
728;DHT22;347;48.780;9.158;2022-08-19T09:44:18;22.10;38.80
728;DHT22;347;48.780;9.158;2022-08-19T09:46:46;22.00;38.80
728;DHT22;347;48.780;9.158;2022-08-19T09:49:18;22.10;38.80
728;DHT22;347;48.780;9.158;2022-08-19T09:51:44;22.10;38.50
728;DHT22;347;48.780;9.158;2022-08-19T09:54:14;22.20;38.30
728;DHT22;347;48.780;9.158;2022-08-19T09:56:40;22.20;38.20
728;DHT22;347;48.780;9.158;2022-08-19T09:59:06;22.20;38.20
728;DHT22;347;48.780;9.158;2022-08-19T10:01:33;22.30;37.80
728;DHT22;347;48.780;9.158;2022-08-19T10:04:00;22.30;37.90
728;DHT22;347;48.780;9.158;2022-08-19T10:06:29;22.30;38.10
728;DHT22;347;48.780;9.158;2022-08-19T10:08:57;22.30;37.70
728;DHT22;347;48.780;9.158;2022-08-19T10:11:23;22.30;37.80
728;DHT22;347;48.780;9.158;2022-08-19T10:13:49;22.30;37.70
728;DHT22;347;48.780;9.158;2022-08-19T10:16:18;22.40;37.50
728;DHT22;347;48.780;9.158;2022-08-19T10:18:49;22.40;37.50
728;DHT22;347;48.780;9.158;2022-08-19T10:21:32;22.40;37.20
728;DHT22;347;48.780;9.158;2022-08-19T10:24:01;22.40;37.10
728;DHT22;347;48.780;9.158;2022-08-19T10:26:34;22.40;37.10
728;DHT22;347;48.780;9.158;2022-08-19T10:29:02;22.40;37.20
728;DHT22;347;48.780;9.158;2022-08-19T10:31:31;22.50;37.00
728;DHT22;347;48.780;9.158;2022-08-19T10:33:58;22.50;36.80
728;DHT22;347;48.780;9.158;2022-08-19T10:36:33;22.40;37.00
728;DHT22;347;48.780;9.158;2022-08-19T10:39:19;22.50;36.80
728;DHT22;347;48.780;9.158;2022-08-19T10:41:45;22.50;36.90
728;DHT22;347;48.780;9.158;2022-08-19T10:44:12;22.50;36.80
728;DHT22;347;48.780;9.158;2022-08-19T10:46:41;22.50;36.50
728;DHT22;347;48.780;9.158;2022-08-19T10:49:09;22.50;36.50
728;DHT22;347;48.780;9.158;2022-08-19T10:51:37;22.50;36.40
728;DHT22;347;48.780;9.158;2022-08-19T10:54:21;22.60;36.30
728;DHT22;347;48.780;9.158;2022-08-19T10:56:47;22.60;35.90
728;DHT22;347;48.780;9.158;2022-08-19T10:59:22;22.70;35.90
728;DHT22;347;48.780;9.158;2022-08-19T11:01:50;22.70;35.60
728;DHT22;347;48.780;9.158;2022-08-19T11:04:18;22.70;35.10
728;DHT22;347;48.780;9.158;2022-08-19T11:06:45;22.80;35.00
728;DHT22;347;48.780;9.158;2022-08-19T11:09:14;22.80;34.80
728;DHT22;347;48.780;9.158;2022-08-19T11:11:41;22.80;34.30
728;DHT22;347;48.780;9.158;2022-08-19T11:14:09;22.80;34.00
728;DHT22;347;48.780;9.158;2022-08-19T11:16:35;22.90;33.70
728;DHT22;347;48.780;9.158;2022-08-19T11:19:04;22.90;34.20
728;DHT22;347;48.780;9.158;2022-08-19T11:29:42;23.00;33.60
728;DHT22;347;48.780;9.158;2022-08-19T11:32:09;23.00;33.60
728;DHT22;347;48.780;9.158;2022-08-19T11:34:35;23.00;33.60
728;DHT22;347;48.780;9.158;2022-08-19T11:37:02;23.10;33.10
728;DHT22;347;48.780;9.158;2022-08-19T11:39:31;23.10;32.60
728;DHT22;347;48.780;9.158;2022-08-19T11:42:00;23.10;32.60
728;DHT22;347;48.780;9.158;2022-08-19T11:44:27;23.20;32.70
728;DHT22;347;48.780;9.158;2022-08-19T11:46:55;23.20;31.80
728;DHT22;347;48.780;9.158;2022-08-19T11:49:21;23.30;31.60
728;DHT22;347;48.780;9.158;2022-08-19T11:51:48;23.30;31.10
728;DHT22;347;48.780;9.158;2022-08-19T11:54:16;23.30;30.80
728;DHT22;347;48.780;9.158;2022-08-19T11:56:43;23.30;30.90
728;DHT22;347;48.780;9.158;2022-08-19T11:59:08;23.30;30.80
728;DHT22;347;48.780;9.158;2022-08-19T12:01:35;23.30;30.80
728;DHT22;347;48.780;9.158;2022-08-19T12:04:00;23.40;30.80
728;DHT22;347;48.780;9.158;2022-08-19T12:06:31;23.30;30.60
728;DHT22;347;48.780;9.158;2022-08-19T12:09:03;23.30;30.40
728;DHT22;347;48.780;9.158;2022-08-19T12:11:29;23.40;30.70
728;DHT22;347;48.780;9.158;2022-08-19T12:13:55;23.40;30.70
728;DHT22;347;48.780;9.158;2022-08-19T12:16:24;23.40;30.20
728;DHT22;347;48.780;9.158;2022-08-19T12:18:50;23.40;30.20
728;DHT22;347;48.780;9.158;2022-08-19T12:21:24;23.40;30.30
728;DHT22;347;48.780;9.158;2022-08-19T12:23:50;23.50;30.20
728;DHT22;347;48.780;9.158;2022-08-19T12:26:17;23.40;30.40
728;DHT22;347;48.780;9.158;2022-08-19T12:28:43;23.40;30.20
728;DHT22;347;48.780;9.158;2022-08-19T12:31:10;23.50;29.90
728;DHT22;347;48.780;9.158;2022-08-19T12:33:37;23.50;29.90
728;DHT22;347;48.780;9.158;2022-08-19T12:36:05;23.50;29.80
728;DHT22;347;48.780;9.158;2022-08-19T12:38:32;23.50;29.80
728;DHT22;347;48.780;9.158;2022-08-19T12:40:59;23.50;29.80
728;DHT22;347;48.780;9.158;2022-08-19T12:43:25;23.50;29.50
728;DHT22;347;48.780;9.158;2022-08-19T12:45:50;23.60;29.60
728;DHT22;347;48.780;9.158;2022-08-19T12:48:16;23.50;30.40
728;DHT22;347;48.780;9.158;2022-08-19T12:50:43;23.50;31.20
728;DHT22;347;48.780;9.158;2022-08-19T12:53:11;23.60;31.90
728;DHT22;347;48.780;9.158;2022-08-19T12:55:37;23.50;31.80
728;DHT22;347;48.780;9.158;2022-08-19T12:58:03;23.50;32.00
728;DHT22;347;48.780;9.158;2022-08-19T13:00:28;23.50;31.70
728;DHT22;347;48.780;9.158;2022-08-19T13:02:54;23.50;31.50
728;DHT22;347;48.780;9.158;2022-08-19T13:05:23;23.60;31.40
728;DHT22;347;48.780;9.158;2022-08-19T13:07:51;23.60;31.40
728;DHT22;347;48.780;9.158;2022-08-19T13:10:19;23.60;32.40
728;DHT22;347;48.780;9.158;2022-08-19T13:12:46;23.60;32.90
728;DHT22;347;48.780;9.158;2022-08-19T13:15:13;23.60;33.00
728;DHT22;347;48.780;9.158;2022-08-19T13:17:40;23.60;32.90
728;DHT22;347;48.780;9.158;2022-08-19T13:20:08;23.50;32.90
728;DHT22;347;48.780;9.158;2022-08-19T13:22:34;23.60;33.10
728;DHT22;347;48.780;9.158;2022-08-19T13:25:07;23.50;33.00
728;DHT22;347;48.780;9.158;2022-08-19T13:27:36;23.60;33.00
728;DHT22;347;48.780;9.158;2022-08-19T13:30:04;23.60;33.10
728;DHT22;347;48.780;9.158;2022-08-19T13:32:49;23.60;33.10
728;DHT22;347;48.780;9.158;2022-08-19T13:35:33;23.50;33.80
728;DHT22;347;48.780;9.158;2022-08-19T13:37:59;23.50;33.80
728;DHT22;347;48.780;9.158;2022-08-19T13:40:26;23.50;33.80
728;DHT22;347;48.780;9.158;2022-08-19T13:42:54;23.30;38.00
728;DHT22;347;48.780;9.158;2022-08-19T13:45:22;23.20;38.80
728;DHT22;347;48.780;9.158;2022-08-19T13:47:51;23.10;38.90
728;DHT22;347;48.780;9.158;2022-08-19T13:50:19;23.10;39.50
728;DHT22;347;48.780;9.158;2022-08-19T13:52:45;23.10;39.70
728;DHT22;347;48.780;9.158;2022-08-19T13:55:12;23.10;40.30
728;DHT22;347;48.780;9.158;2022-08-19T13:57:38;23.10;41.30
728;DHT22;347;48.780;9.158;2022-08-19T14:00:06;23.00;41.30
728;DHT22;347;48.780;9.158;2022-08-19T14:02:33;23.00;41.70
728;DHT22;347;48.780;9.158;2022-08-19T14:04:58;22.90;42.40
728;DHT22;347;48.780;9.158;2022-08-19T14:07:24;22.80;44.30
728;DHT22;347;48.780;9.158;2022-08-19T14:09:50;22.50;46.20
728;DHT22;347;48.780;9.158;2022-08-19T14:12:19;22.40;48.20
728;DHT22;347;48.780;9.158;2022-08-19T14:14:46;22.40;49.10
728;DHT22;347;48.780;9.158;2022-08-19T14:17:11;22.40;50.20
728;DHT22;347;48.780;9.158;2022-08-19T14:19:37;22.30;48.90
728;DHT22;347;48.780;9.158;2022-08-19T14:22:03;22.20;48.50
728;DHT22;347;48.780;9.158;2022-08-19T14:24:29;22.20;48.40
728;DHT22;347;48.780;9.158;2022-08-19T14:26:55;22.10;48.20
728;DHT22;347;48.780;9.158;2022-08-19T14:29:22;22.10;48.30
728;DHT22;347;48.780;9.158;2022-08-19T14:31:48;22.10;48.20
728;DHT22;347;48.780;9.158;2022-08-19T14:34:13;22.00;48.10
728;DHT22;347;48.780;9.158;2022-08-19T14:36:39;22.10;48.10
728;DHT22;347;48.780;9.158;2022-08-19T14:39:05;22.10;47.60
728;DHT22;347;48.780;9.158;2022-08-19T14:41:30;22.10;47.20
728;DHT22;347;48.780;9.158;2022-08-19T14:43:57;22.20;46.40
728;DHT22;347;48.780;9.158;2022-08-19T14:46:25;22.20;45.80
728;DHT22;347;48.780;9.158;2022-08-19T14:48:52;22.20;45.90
728;DHT22;347;48.780;9.158;2022-08-19T14:51:18;22.30;45.70
728;DHT22;347;48.780;9.158;2022-08-19T14:53:45;22.30;45.40
728;DHT22;347;48.780;9.158;2022-08-19T14:56:13;22.40;45.70
728;DHT22;347;48.780;9.158;2022-08-19T14:58:40;22.30;45.30
728;DHT22;347;48.780;9.158;2022-08-19T15:01:08;22.30;45.70
728;DHT22;347;48.780;9.158;2022-08-19T15:03:34;22.30;45.60
728;DHT22;347;48.780;9.158;2022-08-19T15:06:01;22.30;45.10
728;DHT22;347;48.780;9.158;2022-08-19T15:08:29;22.30;45.30
728;DHT22;347;48.780;9.158;2022-08-19T15:10:56;22.30;44.90
728;DHT22;347;48.780;9.158;2022-08-19T15:13:22;22.50;44.40
728;DHT22;347;48.780;9.158;2022-08-19T15:15:50;22.50;44.00
728;DHT22;347;48.780;9.158;2022-08-19T15:18:17;22.70;44.00
728;DHT22;347;48.780;9.158;2022-08-19T15:20:42;22.60;43.60
728;DHT22;347;48.780;9.158;2022-08-19T15:23:09;22.60;43.40
728;DHT22;347;48.780;9.158;2022-08-19T15:25:36;22.70;43.60
728;DHT22;347;48.780;9.158;2022-08-19T15:28:02;22.70;43.00
728;DHT22;347;48.780;9.158;2022-08-19T15:30:28;22.80;42.80
728;DHT22;347;48.780;9.158;2022-08-19T15:32:56;22.90;42.40
728;DHT22;347;48.780;9.158;2022-08-19T15:35:23;22.90;41.90
728;DHT22;347;48.780;9.158;2022-08-19T15:37:53;23.00;41.50
728;DHT22;347;48.780;9.158;2022-08-19T15:40:20;23.10;40.80
728;DHT22;347;48.780;9.158;2022-08-19T15:42:46;23.10;40.70
728;DHT22;347;48.780;9.158;2022-08-19T15:45:13;23.20;40.90
728;DHT22;347;48.780;9.158;2022-08-19T15:47:39;23.20;40.80
728;DHT22;347;48.780;9.158;2022-08-19T15:50:11;23.20;40.10
728;DHT22;347;48.780;9.158;2022-08-19T15:52:54;23.20;39.90
728;DHT22;347;48.780;9.158;2022-08-19T15:55:22;23.20;40.00
728;DHT22;347;48.780;9.158;2022-08-19T15:57:48;23.30;40.20
728;DHT22;347;48.780;9.158;2022-08-19T16:00:32;23.30;39.50
728;DHT22;347;48.780;9.158;2022-08-19T16:03:16;23.40;40.00
728;DHT22;347;48.780;9.158;2022-08-19T16:06:00;23.40;39.30
728;DHT22;347;48.780;9.158;2022-08-19T16:08:45;23.40;39.10
728;DHT22;347;48.780;9.158;2022-08-19T16:11:14;23.40;38.80
728;DHT22;347;48.780;9.158;2022-08-19T16:13:41;23.40;39.00
728;DHT22;347;48.780;9.158;2022-08-19T16:16:07;23.40;38.80
728;DHT22;347;48.780;9.158;2022-08-19T16:18:33;23.50;38.90
728;DHT22;347;48.780;9.158;2022-08-19T16:21:04;23.50;38.70
728;DHT22;347;48.780;9.158;2022-08-19T16:23:33;23.60;38.50
728;DHT22;347;48.780;9.158;2022-08-19T16:25:58;23.60;37.90
728;DHT22;347;48.780;9.158;2022-08-19T16:28:24;23.60;37.60
728;DHT22;347;48.780;9.158;2022-08-19T16:30:50;23.60;38.70
728;DHT22;347;48.780;9.158;2022-08-19T16:33:15;23.60;39.90
728;DHT22;347;48.780;9.158;2022-08-19T16:35:41;23.70;40.40
728;DHT22;347;48.780;9.158;2022-08-19T16:38:07;23.60;40.90
728;DHT22;347;48.780;9.158;2022-08-19T16:40:33;23.60;40.90
728;DHT22;347;48.780;9.158;2022-08-19T16:42:59;23.60;41.00
728;DHT22;347;48.780;9.158;2022-08-19T16:45:24;23.70;41.50
728;DHT22;347;48.780;9.158;2022-08-19T16:47:50;23.60;42.30
728;DHT22;347;48.780;9.158;2022-08-19T16:50:17;23.50;42.40
728;DHT22;347;48.780;9.158;2022-08-19T16:52:43;23.50;42.80
728;DHT22;347;48.780;9.158;2022-08-19T16:55:12;23.50;42.10
728;DHT22;347;48.780;9.158;2022-08-19T16:57:37;23.40;41.50
728;DHT22;347;48.780;9.158;2022-08-19T17:00:04;23.30;41.70
728;DHT22;347;48.780;9.158;2022-08-19T17:02:34;23.30;42.00
728;DHT22;347;48.780;9.158;2022-08-19T17:05:01;23.30;42.00
728;DHT22;347;48.780;9.158;2022-08-19T17:07:28;23.30;41.80
728;DHT22;347;48.780;9.158;2022-08-19T17:09:55;23.30;41.60
728;DHT22;347;48.780;9.158;2022-08-19T17:12:24;23.30;41.50
728;DHT22;347;48.780;9.158;2022-08-19T17:14:50;23.40;41.50
728;DHT22;347;48.780;9.158;2022-08-19T17:17:15;23.30;41.20
728;DHT22;347;48.780;9.158;2022-08-19T17:19:41;23.30;41.20
728;DHT22;347;48.780;9.158;2022-08-19T17:22:08;23.20;41.30
728;DHT22;347;48.780;9.158;2022-08-19T17:24:34;23.00;41.60
728;DHT22;347;48.780;9.158;2022-08-19T17:27:00;22.90;42.00
728;DHT22;347;48.780;9.158;2022-08-19T17:29:26;22.90;42.60
728;DHT22;347;48.780;9.158;2022-08-19T17:31:52;22.80;42.70
728;DHT22;347;48.780;9.158;2022-08-19T17:34:17;22.70;43.10
728;DHT22;347;48.780;9.158;2022-08-19T17:36:43;22.60;43.50
728;DHT22;347;48.780;9.158;2022-08-19T17:39:09;22.60;43.60
728;DHT22;347;48.780;9.158;2022-08-19T17:41:34;22.60;43.70
728;DHT22;347;48.780;9.158;2022-08-19T17:44:01;22.60;44.10
728;DHT22;347;48.780;9.158;2022-08-19T17:46:27;22.50;44.00
728;DHT22;347;48.780;9.158;2022-08-19T17:48:54;22.50;45.00
728;DHT22;347;48.780;9.158;2022-08-19T17:51:40;22.40;44.50
728;DHT22;347;48.780;9.158;2022-08-19T17:54:07;22.40;45.80
728;DHT22;347;48.780;9.158;2022-08-19T17:56:35;22.30;45.40
728;DHT22;347;48.780;9.158;2022-08-19T17:59:04;22.20;46.00
728;DHT22;347;48.780;9.158;2022-08-19T18:01:30;22.10;46.60
728;DHT22;347;48.780;9.158;2022-08-19T18:03:55;22.10;47.20
728;DHT22;347;48.780;9.158;2022-08-19T18:06:21;22.10;46.80
728;DHT22;347;48.780;9.158;2022-08-19T18:08:47;22.10;47.00
728;DHT22;347;48.780;9.158;2022-08-19T18:11:14;22.00;47.20
728;DHT22;347;48.780;9.158;2022-08-19T18:13:40;21.90;47.30
728;DHT22;347;48.780;9.158;2022-08-19T18:16:06;21.90;47.60
728;DHT22;347;48.780;9.158;2022-08-19T18:18:36;21.90;47.70
728;DHT22;347;48.780;9.158;2022-08-19T18:21:02;22.00;47.50
728;DHT22;347;48.780;9.158;2022-08-19T18:23:27;22.00;47.30
728;DHT22;347;48.780;9.158;2022-08-19T18:25:53;22.00;47.60
728;DHT22;347;48.780;9.158;2022-08-19T18:28:18;22.00;47.80
728;DHT22;347;48.780;9.158;2022-08-19T18:30:44;21.90;47.80
728;DHT22;347;48.780;9.158;2022-08-19T18:33:10;21.90;48.00
728;DHT22;347;48.780;9.158;2022-08-19T18:35:47;22.00;47.90
728;DHT22;347;48.780;9.158;2022-08-19T18:38:15;22.00;47.70
728;DHT22;347;48.780;9.158;2022-08-19T18:41:00;22.00;48.00
728;DHT22;347;48.780;9.158;2022-08-19T18:43:45;22.00;47.80
728;DHT22;347;48.780;9.158;2022-08-19T18:46:29;22.00;47.90
728;DHT22;347;48.780;9.158;2022-08-19T18:49:23;22.00;48.10
728;DHT22;347;48.780;9.158;2022-08-19T18:51:49;22.10;48.30
728;DHT22;347;48.780;9.158;2022-08-19T18:54:18;22.00;48.50
728;DHT22;347;48.780;9.158;2022-08-19T18:56:44;22.00;48.90
728;DHT22;347;48.780;9.158;2022-08-19T18:59:10;21.90;48.90
728;DHT22;347;48.780;9.158;2022-08-19T19:01:40;21.90;49.00
728;DHT22;347;48.780;9.158;2022-08-19T19:04:10;21.80;49.30
728;DHT22;347;48.780;9.158;2022-08-19T19:06:38;21.80;49.70
728;DHT22;347;48.780;9.158;2022-08-19T19:09:07;21.80;49.90
728;DHT22;347;48.780;9.158;2022-08-19T19:11:36;21.80;50.40
728;DHT22;347;48.780;9.158;2022-08-19T19:14:04;21.70;50.40
728;DHT22;347;48.780;9.158;2022-08-19T19:16:34;21.80;50.50
728;DHT22;347;48.780;9.158;2022-08-19T19:19:00;21.80;50.20
728;DHT22;347;48.780;9.158;2022-08-19T19:21:26;21.90;50.30
728;DHT22;347;48.780;9.158;2022-08-19T19:23:53;21.90;50.40
728;DHT22;347;48.780;9.158;2022-08-19T19:26:19;21.80;49.80
728;DHT22;347;48.780;9.158;2022-08-19T19:28:46;21.90;49.70
728;DHT22;347;48.780;9.158;2022-08-19T19:31:19;21.90;49.40
728;DHT22;347;48.780;9.158;2022-08-19T19:33:45;22.00;49.50
728;DHT22;347;48.780;9.158;2022-08-19T19:36:11;22.10;48.80
728;DHT22;347;48.780;9.158;2022-08-19T19:38:37;22.20;48.20
728;DHT22;347;48.780;9.158;2022-08-19T19:41:03;22.30;47.50
728;DHT22;347;48.780;9.158;2022-08-19T19:43:29;22.40;47.10
728;DHT22;347;48.780;9.158;2022-08-19T19:45:55;22.40;46.60
728;DHT22;347;48.780;9.158;2022-08-19T19:48:21;22.40;46.20
728;DHT22;347;48.780;9.158;2022-08-19T19:50:49;22.40;46.30
728;DHT22;347;48.780;9.158;2022-08-19T19:53:14;22.40;46.10
728;DHT22;347;48.780;9.158;2022-08-19T19:55:41;22.50;46.10
728;DHT22;347;48.780;9.158;2022-08-19T19:58:07;22.50;45.80
728;DHT22;347;48.780;9.158;2022-08-19T20:00:33;22.50;45.20
728;DHT22;347;48.780;9.158;2022-08-19T20:02:59;22.60;45.00
728;DHT22;347;48.780;9.158;2022-08-19T20:05:25;22.60;44.50
728;DHT22;347;48.780;9.158;2022-08-19T20:07:52;22.60;44.40
728;DHT22;347;48.780;9.158;2022-08-19T20:10:37;22.60;44.20
728;DHT22;347;48.780;9.158;2022-08-19T20:13:04;22.70;44.10
728;DHT22;347;48.780;9.158;2022-08-19T20:15:31;22.70;43.90
728;DHT22;347;48.780;9.158;2022-08-19T20:17:57;22.70;44.10
728;DHT22;347;48.780;9.158;2022-08-19T20:20:23;22.70;44.20
728;DHT22;347;48.780;9.158;2022-08-19T20:22:50;22.70;44.00
728;DHT22;347;48.780;9.158;2022-08-19T20:25:19;22.80;43.90
728;DHT22;347;48.780;9.158;2022-08-19T20:27:45;22.80;44.20
728;DHT22;347;48.780;9.158;2022-08-19T20:30:13;22.70;41.90
728;DHT22;347;48.780;9.158;2022-08-19T20:32:40;22.70;41.70
728;DHT22;347;48.780;9.158;2022-08-19T20:35:11;22.70;41.70
728;DHT22;347;48.780;9.158;2022-08-19T20:37:37;22.80;41.10
728;DHT22;347;48.780;9.158;2022-08-19T20:40:06;22.80;32.30
728;DHT22;347;48.780;9.158;2022-08-19T20:42:34;22.80;31.30
728;DHT22;347;48.780;9.158;2022-08-19T20:45:02;22.90;28.80
728;DHT22;347;48.780;9.158;2022-08-19T20:47:27;22.90;27.80
728;DHT22;347;48.780;9.158;2022-08-19T20:49:56;23.00;27.60
728;DHT22;347;48.780;9.158;2022-08-19T20:52:22;22.90;27.20
728;DHT22;347;48.780;9.158;2022-08-19T20:54:48;23.00;26.80
728;DHT22;347;48.780;9.158;2022-08-19T20:57:13;23.10;25.70
728;DHT22;347;48.780;9.158;2022-08-19T20:59:39;23.00;25.10
728;DHT22;347;48.780;9.158;2022-08-19T21:02:04;23.10;25.20
728;DHT22;347;48.780;9.158;2022-08-19T21:04:30;23.10;25.50
728;DHT22;347;48.780;9.158;2022-08-19T21:06:57;23.10;25.10
728;DHT22;347;48.780;9.158;2022-08-19T21:09:22;23.10;25.30
728;DHT22;347;48.780;9.158;2022-08-19T21:11:48;23.20;24.90
728;DHT22;347;48.780;9.158;2022-08-19T21:14:14;23.10;24.50